sensor_id;sensor_type;location;lat;lon;timestamp;P1;durP1;ratioP1;P2;durP2;ratioP2
9098;SDS011;4585;51.414;6.776;2022-07-11T00:00:13;3.57;;;2.07;;
9098;SDS011;4585;51.414;6.776;2022-07-11T00:02:39;3.93;;;2.27;;
9098;SDS011;4585;51.414;6.776;2022-07-11T00:05:06;2.67;;;1.90;;
9098;SDS011;4585;51.414;6.776;2022-07-11T00:07:33;2.80;;;2.17;;
9098;SDS011;4585;51.414;6.776;2022-07-11T00:09:59;4.40;;;2.50;;
9098;SDS011;4585;51.414;6.776;2022-07-11T00:12:25;4.00;;;2.50;;
9098;SDS011;4585;51.414;6.776;2022-07-11T00:14:52;4.13;;;2.60;;
9098;SDS011;4585;51.414;6.776;2022-07-11T00:17:21;3.40;;;2.37;;
9098;SDS011;4585;51.414;6.776;2022-07-11T00:19:48;4.30;;;2.70;;
9098;SDS011;4585;51.414;6.776;2022-07-11T00:22:14;4.20;;;2.63;;
9098;SDS011;4585;51.414;6.776;2022-07-11T00:24:40;3.70;;;2.20;;
9098;SDS011;4585;51.414;6.776;2022-07-11T00:27:05;6.60;;;2.90;;
9098;SDS011;4585;51.414;6.776;2022-07-11T00:29:31;5.77;;;2.57;;
9098;SDS011;4585;51.414;6.776;2022-07-11T00:31:57;6.47;;;2.30;;
9098;SDS011;4585;51.414;6.776;2022-07-11T00:34:24;4.50;;;2.60;;
9098;SDS011;4585;51.414;6.776;2022-07-11T00:36:50;4.93;;;2.67;;
9098;SDS011;4585;51.414;6.776;2022-07-11T00:39:16;4.20;;;2.40;;
9098;SDS011;4585;51.414;6.776;2022-07-11T00:41:42;4.97;;;2.40;;
9098;SDS011;4585;51.414;6.776;2022-07-11T00:44:07;3.60;;;2.57;;
9098;SDS011;4585;51.414;6.776;2022-07-11T00:46:33;6.37;;;2.87;;
9098;SDS011;4585;51.414;6.776;2022-07-11T00:48:59;5.90;;;2.50;;
9098;SDS011;4585;51.414;6.776;2022-07-11T00:51:25;4.20;;;2.30;;
9098;SDS011;4585;51.414;6.776;2022-07-11T00:53:56;4.53;;;2.60;;
9098;SDS011;4585;51.414;6.776;2022-07-11T00:56:26;3.13;;;2.00;;
9098;SDS011;4585;51.414;6.776;2022-07-11T00:58:54;5.53;;;2.53;;
9098;SDS011;4585;51.414;6.776;2022-07-11T01:01:22;6.93;;;2.20;;
9098;SDS011;4585;51.414;6.776;2022-07-11T01:03:48;3.93;;;1.90;;
9098;SDS011;4585;51.414;6.776;2022-07-11T01:06:14;3.23;;;1.80;;
9098;SDS011;4585;51.414;6.776;2022-07-11T01:08:40;2.93;;;1.90;;
9098;SDS011;4585;51.414;6.776;2022-07-11T01:11:10;4.50;;;2.40;;
9098;SDS011;4585;51.414;6.776;2022-07-11T01:13:43;4.93;;;2.10;;
9098;SDS011;4585;51.414;6.776;2022-07-11T01:16:14;5.93;;;2.07;;
9098;SDS011;4585;51.414;6.776;2022-07-11T01:18:45;4.63;;;2.07;;
9098;SDS011;4585;51.414;6.776;2022-07-11T01:21:17;2.50;;;1.90;;
9098;SDS011;4585;51.414;6.776;2022-07-11T01:23:50;4.90;;;2.10;;
9098;SDS011;4585;51.414;6.776;2022-07-11T01:26:17;4.47;;;1.93;;
9098;SDS011;4585;51.414;6.776;2022-07-11T01:28:44;2.00;;;1.80;;
9098;SDS011;4585;51.414;6.776;2022-07-11T01:31:10;5.00;;;1.97;;
9098;SDS011;4585;51.414;6.776;2022-07-11T01:33:37;2.33;;;1.70;;
9098;SDS011;4585;51.414;6.776;2022-07-11T01:36:03;4.70;;;1.93;;
9098;SDS011;4585;51.414;6.776;2022-07-11T01:38:29;4.20;;;2.03;;
9098;SDS011;4585;51.414;6.776;2022-07-11T01:40:55;7.97;;;2.13;;
9098;SDS011;4585;51.414;6.776;2022-07-11T01:43:21;5.63;;;2.00;;
9098;SDS011;4585;51.414;6.776;2022-07-11T01:45:50;3.50;;;2.00;;
9098;SDS011;4585;51.414;6.776;2022-07-11T01:48:19;3.87;;;1.90;;
9098;SDS011;4585;51.414;6.776;2022-07-11T01:50:45;2.70;;;2.03;;
9098;SDS011;4585;51.414;6.776;2022-07-11T01:53:11;5.13;;;1.90;;
9098;SDS011;4585;51.414;6.776;2022-07-11T01:55:37;5.20;;;2.30;;
9098;SDS011;4585;51.414;6.776;2022-07-11T01:58:03;4.67;;;2.20;;
9098;SDS011;4585;51.414;6.776;2022-07-11T02:00:29;3.23;;;2.00;;
9098;SDS011;4585;51.414;6.776;2022-07-11T02:02:54;2.87;;;2.03;;
9098;SDS011;4585;51.414;6.776;2022-07-11T02:05:21;4.93;;;2.43;;
9098;SDS011;4585;51.414;6.776;2022-07-11T02:07:47;6.30;;;1.93;;
9098;SDS011;4585;51.414;6.776;2022-07-11T02:10:31;3.20;;;2.10;;
9098;SDS011;4585;51.414;6.776;2022-07-11T02:12:57;4.97;;;2.23;;
9098;SDS011;4585;51.414;6.776;2022-07-11T02:15:24;3.47;;;2.10;;
9098;SDS011;4585;51.414;6.776;2022-07-11T02:17:50;5.03;;;2.23;;
9098;SDS011;4585;51.414;6.776;2022-07-11T02:20:17;3.80;;;2.20;;
9098;SDS011;4585;51.414;6.776;2022-07-11T02:22:46;2.50;;;1.97;;
9098;SDS011;4585;51.414;6.776;2022-07-11T02:25:13;6.60;;;2.50;;
9098;SDS011;4585;51.414;6.776;2022-07-11T02:27:42;5.33;;;1.83;;
9098;SDS011;4585;51.414;6.776;2022-07-11T02:30:08;6.30;;;2.10;;
9098;SDS011;4585;51.414;6.776;2022-07-11T02:32:34;4.03;;;1.70;;
9098;SDS011;4585;51.414;6.776;2022-07-11T02:35:00;2.07;;;1.67;;
9098;SDS011;4585;51.414;6.776;2022-07-11T02:37:26;4.30;;;2.10;;
9098;SDS011;4585;51.414;6.776;2022-07-11T02:39:53;3.77;;;2.10;;
9098;SDS011;4585;51.414;6.776;2022-07-11T02:42:19;6.87;;;2.13;;
9098;SDS011;4585;51.414;6.776;2022-07-11T02:44:45;2.53;;;1.90;;
9098;SDS011;4585;51.414;6.776;2022-07-11T02:47:11;2.13;;;1.77;;
9098;SDS011;4585;51.414;6.776;2022-07-11T02:49:39;2.93;;;2.03;;
9098;SDS011;4585;51.414;6.776;2022-07-11T02:52:05;7.57;;;2.00;;
9098;SDS011;4585;51.414;6.776;2022-07-11T02:54:31;3.80;;;1.90;;
9098;SDS011;4585;51.414;6.776;2022-07-11T02:56:56;4.87;;;2.37;;
9098;SDS011;4585;51.414;6.776;2022-07-11T02:59:22;2.27;;;1.80;;
9098;SDS011;4585;51.414;6.776;2022-07-11T03:01:48;4.90;;;2.07;;
9098;SDS011;4585;51.414;6.776;2022-07-11T03:04:14;4.30;;;1.93;;
9098;SDS011;4585;51.414;6.776;2022-07-11T03:06:40;1.57;;;1.47;;
9098;SDS011;4585;51.414;6.776;2022-07-11T03:09:06;2.33;;;1.60;;
9098;SDS011;4585;51.414;6.776;2022-07-11T03:11:33;4.67;;;1.60;;
9098;SDS011;4585;51.414;6.776;2022-07-11T03:14:00;1.33;;;1.20;;
9098;SDS011;4585;51.414;6.776;2022-07-11T03:16:26;3.93;;;1.37;;
9098;SDS011;4585;51.414;6.776;2022-07-11T03:18:53;1.67;;;1.33;;
9098;SDS011;4585;51.414;6.776;2022-07-11T03:21:19;3.53;;;1.47;;
9098;SDS011;4585;51.414;6.776;2022-07-11T03:23:45;3.23;;;1.50;;
9098;SDS011;4585;51.414;6.776;2022-07-11T03:26:10;4.20;;;1.50;;
9098;SDS011;4585;51.414;6.776;2022-07-11T03:28:36;1.43;;;1.23;;
9098;SDS011;4585;51.414;6.776;2022-07-11T03:31:02;2.00;;;1.23;;
9098;SDS011;4585;51.414;6.776;2022-07-11T03:33:28;3.40;;;1.70;;
9098;SDS011;4585;51.414;6.776;2022-07-11T03:35:54;1.83;;;1.20;;
9098;SDS011;4585;51.414;6.776;2022-07-11T03:38:20;1.63;;;1.10;;
9098;SDS011;4585;51.414;6.776;2022-07-11T03:40:46;1.10;;;1.10;;
9098;SDS011;4585;51.414;6.776;2022-07-11T03:43:13;2.23;;;0.90;;
9098;SDS011;4585;51.414;6.776;2022-07-11T03:45:42;1.67;;;0.83;;
9098;SDS011;4585;51.414;6.776;2022-07-11T03:48:08;1.53;;;0.80;;
9098;SDS011;4585;51.414;6.776;2022-07-11T03:50:34;1.20;;;0.90;;
9098;SDS011;4585;51.414;6.776;2022-07-11T03:53:00;1.70;;;0.70;;
9098;SDS011;4585;51.414;6.776;2022-07-11T03:55:27;1.17;;;0.90;;
9098;SDS011;4585;51.414;6.776;2022-07-11T03:57:53;5.03;;;1.10;;
9098;SDS011;4585;51.414;6.776;2022-07-11T04:00:19;0.97;;;0.97;;
9098;SDS011;4585;51.414;6.776;2022-07-11T04:02:46;1.33;;;0.80;;
9098;SDS011;4585;51.414;6.776;2022-07-11T04:05:12;2.87;;;1.30;;
9098;SDS011;4585;51.414;6.776;2022-07-11T04:07:39;2.23;;;1.00;;
9098;SDS011;4585;51.414;6.776;2022-07-11T04:10:05;2.13;;;1.20;;
9098;SDS011;4585;51.414;6.776;2022-07-11T04:12:31;2.00;;;1.20;;
9098;SDS011;4585;51.414;6.776;2022-07-11T04:14:57;1.13;;;1.03;;
9098;SDS011;4585;51.414;6.776;2022-07-11T04:17:23;1.03;;;0.97;;
9098;SDS011;4585;51.414;6.776;2022-07-11T04:19:49;2.20;;;1.33;;
9098;SDS011;4585;51.414;6.776;2022-07-11T04:22:15;1.77;;;1.20;;
9098;SDS011;4585;51.414;6.776;2022-07-11T04:24:41;3.03;;;1.10;;
9098;SDS011;4585;51.414;6.776;2022-07-11T04:27:07;3.57;;;1.00;;
9098;SDS011;4585;51.414;6.776;2022-07-11T04:29:33;0.80;;;0.80;;
9098;SDS011;4585;51.414;6.776;2022-07-11T04:31:58;0.80;;;0.80;;
9098;SDS011;4585;51.414;6.776;2022-07-11T04:34:24;1.83;;;0.80;;
9098;SDS011;4585;51.414;6.776;2022-07-11T04:36:50;0.70;;;0.70;;
9098;SDS011;4585;51.414;6.776;2022-07-11T04:39:15;1.00;;;1.00;;
9098;SDS011;4585;51.414;6.776;2022-07-11T04:41:41;1.30;;;1.00;;
9098;SDS011;4585;51.414;6.776;2022-07-11T04:44:07;1.70;;;1.50;;
9098;SDS011;4585;51.414;6.776;2022-07-11T04:46:33;3.03;;;1.77;;
9098;SDS011;4585;51.414;6.776;2022-07-11T04:48:58;1.90;;;1.50;;
9098;SDS011;4585;51.414;6.776;2022-07-11T04:51:24;2.50;;;1.37;;
9098;SDS011;4585;51.414;6.776;2022-07-11T04:53:50;0.83;;;0.80;;
9098;SDS011;4585;51.414;6.776;2022-07-11T04:56:16;1.23;;;0.80;;
9098;SDS011;4585;51.414;6.776;2022-07-11T04:58:42;1.13;;;0.93;;
9098;SDS011;4585;51.414;6.776;2022-07-11T05:01:08;1.23;;;1.00;;
9098;SDS011;4585;51.414;6.776;2022-07-11T05:03:34;1.10;;;1.00;;
9098;SDS011;4585;51.414;6.776;2022-07-11T05:06:00;1.63;;;1.10;;
9098;SDS011;4585;51.414;6.776;2022-07-11T05:08:26;2.20;;;1.20;;
9098;SDS011;4585;51.414;6.776;2022-07-11T05:10:54;6.87;;;1.50;;
9098;SDS011;4585;51.414;6.776;2022-07-11T05:13:20;2.27;;;1.20;;
9098;SDS011;4585;51.414;6.776;2022-07-11T05:15:45;2.70;;;1.30;;
9098;SDS011;4585;51.414;6.776;2022-07-11T05:18:11;1.10;;;1.00;;
9098;SDS011;4585;51.414;6.776;2022-07-11T05:20:37;1.20;;;1.10;;
9098;SDS011;4585;51.414;6.776;2022-07-11T05:23:02;5.40;;;1.13;;
9098;SDS011;4585;51.414;6.776;2022-07-11T05:25:28;1.33;;;0.97;;
9098;SDS011;4585;51.414;6.776;2022-07-11T05:27:54;1.23;;;1.00;;
9098;SDS011;4585;51.414;6.776;2022-07-11T05:30:20;0.77;;;0.73;;
9098;SDS011;4585;51.414;6.776;2022-07-11T05:32:46;1.33;;;0.93;;
9098;SDS011;4585;51.414;6.776;2022-07-11T05:35:11;2.23;;;0.90;;
9098;SDS011;4585;51.414;6.776;2022-07-11T05:37:37;2.20;;;1.00;;
9098;SDS011;4585;51.414;6.776;2022-07-11T05:40:03;1.57;;;1.20;;
9098;SDS011;4585;51.414;6.776;2022-07-11T05:42:30;0.90;;;0.80;;
9098;SDS011;4585;51.414;6.776;2022-07-11T05:44:56;1.30;;;0.97;;
9098;SDS011;4585;51.414;6.776;2022-07-11T05:47:22;0.80;;;0.80;;
9098;SDS011;4585;51.414;6.776;2022-07-11T05:49:48;0.63;;;0.63;;
9098;SDS011;4585;51.414;6.776;2022-07-11T05:52:14;2.93;;;1.03;;
9098;SDS011;4585;51.414;6.776;2022-07-11T05:54:40;0.70;;;0.70;;
9098;SDS011;4585;51.414;6.776;2022-07-11T05:57:06;2.27;;;1.00;;
9098;SDS011;4585;51.414;6.776;2022-07-11T05:59:31;0.83;;;0.80;;
9098;SDS011;4585;51.414;6.776;2022-07-11T06:01:57;0.90;;;0.90;;
9098;SDS011;4585;51.414;6.776;2022-07-11T06:04:23;1.50;;;1.10;;
9098;SDS011;4585;51.414;6.776;2022-07-11T06:06:48;1.13;;;1.03;;
9098;SDS011;4585;51.414;6.776;2022-07-11T06:09:14;1.40;;;1.30;;
9098;SDS011;4585;51.414;6.776;2022-07-11T06:11:40;5.60;;;1.90;;
9098;SDS011;4585;51.414;6.776;2022-07-11T06:14:06;3.30;;;2.50;;
9098;SDS011;4585;51.414;6.776;2022-07-11T06:16:32;3.27;;;2.50;;
9098;SDS011;4585;51.414;6.776;2022-07-11T06:18:57;6.93;;;2.00;;
9098;SDS011;4585;51.414;6.776;2022-07-11T06:21:24;2.67;;;1.83;;
9098;SDS011;4585;51.414;6.776;2022-07-11T06:23:50;3.07;;;1.80;;
9098;SDS011;4585;51.414;6.776;2022-07-11T06:26:16;2.20;;;1.83;;
9098;SDS011;4585;51.414;6.776;2022-07-11T06:28:42;4.20;;;2.37;;
9098;SDS011;4585;51.414;6.776;2022-07-11T06:31:08;5.47;;;2.73;;
9098;SDS011;4585;51.414;6.776;2022-07-11T06:33:35;2.77;;;2.23;;
9098;SDS011;4585;51.414;6.776;2022-07-11T06:36:01;2.70;;;1.97;;
9098;SDS011;4585;51.414;6.776;2022-07-11T06:38:28;2.60;;;1.50;;
9098;SDS011;4585;51.414;6.776;2022-07-11T06:40:54;3.33;;;1.50;;
9098;SDS011;4585;51.414;6.776;2022-07-11T06:43:20;2.63;;;1.40;;
9098;SDS011;4585;51.414;6.776;2022-07-11T06:45:46;1.60;;;1.40;;
9098;SDS011;4585;51.414;6.776;2022-07-11T06:48:13;2.87;;;1.67;;
9098;SDS011;4585;51.414;6.776;2022-07-11T06:50:39;2.50;;;2.00;;
9098;SDS011;4585;51.414;6.776;2022-07-11T06:53:05;5.53;;;2.20;;
9098;SDS011;4585;51.414;6.776;2022-07-11T06:55:31;2.90;;;2.30;;
9098;SDS011;4585;51.414;6.776;2022-07-11T06:57:57;3.23;;;1.80;;
9098;SDS011;4585;51.414;6.776;2022-07-11T07:00:24;3.67;;;2.10;;
9098;SDS011;4585;51.414;6.776;2022-07-11T07:02:49;2.87;;;1.70;;
9098;SDS011;4585;51.414;6.776;2022-07-11T07:05:15;2.60;;;1.90;;
9098;SDS011;4585;51.414;6.776;2022-07-11T07:07:41;1.80;;;1.60;;
9098;SDS011;4585;51.414;6.776;2022-07-11T07:10:07;4.33;;;2.70;;
9098;SDS011;4585;51.414;6.776;2022-07-11T07:12:36;5.43;;;2.63;;
9098;SDS011;4585;51.414;6.776;2022-07-11T07:15:04;2.53;;;2.33;;
9098;SDS011;4585;51.414;6.776;2022-07-11T07:17:31;2.77;;;2.33;;
9098;SDS011;4585;51.414;6.776;2022-07-11T07:19:57;6.00;;;1.90;;
9098;SDS011;4585;51.414;6.776;2022-07-11T07:22:22;2.77;;;2.30;;
9098;SDS011;4585;51.414;6.776;2022-07-11T07:24:48;3.50;;;2.70;;
9098;SDS011;4585;51.414;6.776;2022-07-11T07:27:14;6.87;;;4.60;;
9098;SDS011;4585;51.414;6.776;2022-07-11T07:29:39;7.03;;;4.43;;
9098;SDS011;4585;51.414;6.776;2022-07-11T07:32:05;4.20;;;3.10;;
9098;SDS011;4585;51.414;6.776;2022-07-11T07:34:31;3.97;;;1.70;;
9098;SDS011;4585;51.414;6.776;2022-07-11T07:36:58;2.47;;;1.70;;
9098;SDS011;4585;51.414;6.776;2022-07-11T07:39:26;3.73;;;1.70;;
9098;SDS011;4585;51.414;6.776;2022-07-11T07:41:52;2.73;;;1.97;;
9098;SDS011;4585;51.414;6.776;2022-07-11T07:44:18;6.33;;;2.43;;
9098;SDS011;4585;51.414;6.776;2022-07-11T07:46:44;5.50;;;2.30;;
9098;SDS011;4585;51.414;6.776;2022-07-11T07:49:11;2.37;;;2.17;;
9098;SDS011;4585;51.414;6.776;2022-07-11T07:51:37;2.70;;;2.40;;
9098;SDS011;4585;51.414;6.776;2022-07-11T07:54:02;4.50;;;3.10;;
9098;SDS011;4585;51.414;6.776;2022-07-11T07:56:28;5.30;;;4.00;;
9098;SDS011;4585;51.414;6.776;2022-07-11T07:58:54;5.47;;;3.93;;
9098;SDS011;4585;51.414;6.776;2022-07-11T08:01:19;8.63;;;4.50;;
9098;SDS011;4585;51.414;6.776;2022-07-11T08:04:01;8.20;;;4.57;;
9098;SDS011;4585;51.414;6.776;2022-07-11T08:06:36;11.67;;;4.53;;
9098;SDS011;4585;51.414;6.776;2022-07-11T08:09:03;9.00;;;4.47;;
9098;SDS011;4585;51.414;6.776;2022-07-11T08:11:30;6.50;;;4.53;;
9098;SDS011;4585;51.414;6.776;2022-07-11T08:13:58;6.23;;;4.87;;
9098;SDS011;4585;51.414;6.776;2022-07-11T08:16:25;8.27;;;6.17;;
9098;SDS011;4585;51.414;6.776;2022-07-11T08:18:54;7.90;;;5.10;;
9098;SDS011;4585;51.414;6.776;2022-07-11T08:21:21;5.47;;;4.87;;
9098;SDS011;4585;51.414;6.776;2022-07-11T08:23:46;8.00;;;5.00;;
9098;SDS011;4585;51.414;6.776;2022-07-11T08:26:12;6.83;;;4.27;;
9098;SDS011;4585;51.414;6.776;2022-07-11T08:28:38;6.60;;;3.67;;
9098;SDS011;4585;51.414;6.776;2022-07-11T08:31:04;4.83;;;3.37;;
9098;SDS011;4585;51.414;6.776;2022-07-11T08:33:30;7.60;;;5.13;;
9098;SDS011;4585;51.414;6.776;2022-07-11T08:35:55;6.77;;;4.47;;
9098;SDS011;4585;51.414;6.776;2022-07-11T08:38:21;8.10;;;4.53;;
9098;SDS011;4585;51.414;6.776;2022-07-11T08:40:50;4.77;;;2.67;;
9098;SDS011;4585;51.414;6.776;2022-07-11T08:43:17;3.67;;;2.67;;
9098;SDS011;4585;51.414;6.776;2022-07-11T08:45:46;3.00;;;2.70;;
9098;SDS011;4585;51.414;6.776;2022-07-11T08:48:13;6.43;;;4.23;;
9098;SDS011;4585;51.414;6.776;2022-07-11T08:50:40;5.60;;;3.80;;
9098;SDS011;4585;51.414;6.776;2022-07-11T08:53:05;6.47;;;3.90;;
9098;SDS011;4585;51.414;6.776;2022-07-11T08:55:31;3.53;;;2.40;;
9098;SDS011;4585;51.414;6.776;2022-07-11T08:57:58;4.90;;;2.30;;
9098;SDS011;4585;51.414;6.776;2022-07-11T09:00:24;2.50;;;1.90;;
9098;SDS011;4585;51.414;6.776;2022-07-11T09:02:50;2.53;;;1.80;;
9098;SDS011;4585;51.414;6.776;2022-07-11T09:05:18;2.90;;;2.40;;
9098;SDS011;4585;51.414;6.776;2022-07-11T09:10:11;3.73;;;2.97;;
9098;SDS011;4585;51.414;6.776;2022-07-11T09:12:37;3.83;;;3.53;;
9098;SDS011;4585;51.414;6.776;2022-07-11T09:20:57;3.77;;;3.37;;
9098;SDS011;4585;51.414;6.776;2022-07-11T09:23:43;5.30;;;2.90;;
9098;SDS011;4585;51.414;6.776;2022-07-11T09:26:28;2.73;;;2.53;;
9098;SDS011;4585;51.414;6.776;2022-07-11T09:29:01;3.60;;;3.10;;
9098;SDS011;4585;51.414;6.776;2022-07-11T09:31:30;3.83;;;2.53;;
9098;SDS011;4585;51.414;6.776;2022-07-11T09:33:57;2.80;;;2.60;;
9098;SDS011;4585;51.414;6.776;2022-07-11T09:39:10;3.37;;;2.70;;
9098;SDS011;4585;51.414;6.776;2022-07-11T09:41:43;1.73;;;1.63;;
9098;SDS011;4585;51.414;6.776;2022-07-11T09:46:36;2.20;;;1.77;;
9098;SDS011;4585;51.414;6.776;2022-07-11T09:49:03;3.00;;;1.70;;
9098;SDS011;4585;51.414;6.776;2022-07-11T09:51:30;2.23;;;1.97;;
9098;SDS011;4585;51.414;6.776;2022-07-11T09:53:57;3.37;;;2.70;;
9098;SDS011;4585;51.414;6.776;2022-07-11T09:56:31;2.77;;;2.50;;
9098;SDS011;4585;51.414;6.776;2022-07-11T09:59:05;2.13;;;1.93;;
9098;SDS011;4585;51.414;6.776;2022-07-11T10:01:32;2.13;;;1.80;;
9098;SDS011;4585;51.414;6.776;2022-07-11T10:03:58;1.87;;;1.70;;
9098;SDS011;4585;51.414;6.776;2022-07-11T10:06:24;1.83;;;1.67;;
9098;SDS011;4585;51.414;6.776;2022-07-11T10:08:51;2.27;;;1.77;;
9098;SDS011;4585;51.414;6.776;2022-07-11T10:11:18;1.40;;;1.30;;
9098;SDS011;4585;51.414;6.776;2022-07-11T10:13:44;2.60;;;2.10;;
9098;SDS011;4585;51.414;6.776;2022-07-11T10:16:32;4.90;;;2.90;;
9098;SDS011;4585;51.414;6.776;2022-07-11T10:19:05;3.83;;;2.53;;
9098;SDS011;4585;51.414;6.776;2022-07-11T10:27:28;3.17;;;2.53;;
9098;SDS011;4585;51.414;6.776;2022-07-11T10:30:07;3.70;;;2.40;;
9098;SDS011;4585;51.414;6.776;2022-07-11T10:32:33;4.53;;;2.03;;
9098;SDS011;4585;51.414;6.776;2022-07-11T10:35:28;3.60;;;2.50;;
9098;SDS011;4585;51.414;6.776;2022-07-11T10:37:54;4.10;;;3.67;;
9098;SDS011;4585;51.414;6.776;2022-07-11T10:43:08;6.80;;;3.20;;
9098;SDS011;4585;51.414;6.776;2022-07-11T10:48:25;4.13;;;3.70;;
9098;SDS011;4585;51.414;6.776;2022-07-11T10:53:34;2.43;;;2.10;;
9098;SDS011;4585;51.414;6.776;2022-07-11T10:58:40;3.67;;;2.13;;
9098;SDS011;4585;51.414;6.776;2022-07-11T11:03:40;3.83;;;2.63;;
9098;SDS011;4585;51.414;6.776;2022-07-11T11:06:07;2.23;;;2.03;;
9098;SDS011;4585;51.414;6.776;2022-07-11T11:11:03;3.07;;;2.47;;
9098;SDS011;4585;51.414;6.776;2022-07-11T11:16:43;2.80;;;1.77;;
9098;SDS011;4585;51.414;6.776;2022-07-11T11:22:16;3.00;;;1.70;;
9098;SDS011;4585;51.414;6.776;2022-07-11T11:24:43;1.70;;;1.30;;
9098;SDS011;4585;51.414;6.776;2022-07-11T11:27:15;1.23;;;1.03;;
9098;SDS011;4585;51.414;6.776;2022-07-11T11:29:46;1.80;;;1.30;;
9098;SDS011;4585;51.414;6.776;2022-07-11T11:32:16;1.47;;;1.20;;
9098;SDS011;4585;51.414;6.776;2022-07-11T11:34:42;5.17;;;1.17;;
9098;SDS011;4585;51.414;6.776;2022-07-11T11:37:08;1.20;;;1.10;;
9098;SDS011;4585;51.414;6.776;2022-07-11T11:39:35;1.80;;;1.00;;
9098;SDS011;4585;51.414;6.776;2022-07-11T11:44:33;2.87;;;1.10;;
9098;SDS011;4585;51.414;6.776;2022-07-11T11:47:00;2.17;;;0.90;;
9098;SDS011;4585;51.414;6.776;2022-07-11T11:49:26;0.67;;;0.67;;
9098;SDS011;4585;51.414;6.776;2022-07-11T11:51:54;2.70;;;1.10;;
9098;SDS011;4585;51.414;6.776;2022-07-11T11:54:25;1.67;;;1.20;;
9098;SDS011;4585;51.414;6.776;2022-07-11T11:56:51;2.13;;;1.87;;
9098;SDS011;4585;51.414;6.776;2022-07-11T11:59:17;3.47;;;2.10;;
9098;SDS011;4585;51.414;6.776;2022-07-11T12:01:44;3.40;;;1.87;;
9098;SDS011;4585;51.414;6.776;2022-07-11T12:04:11;3.97;;;2.10;;
9098;SDS011;4585;51.414;6.776;2022-07-11T12:06:45;5.10;;;2.07;;
9098;SDS011;4585;51.414;6.776;2022-07-11T12:09:13;3.70;;;2.10;;
9098;SDS011;4585;51.414;6.776;2022-07-11T12:11:44;4.53;;;2.10;;
9098;SDS011;4585;51.414;6.776;2022-07-11T12:14:34;4.67;;;2.10;;
9098;SDS011;4585;51.414;6.776;2022-07-11T12:17:00;2.63;;;1.57;;
9098;SDS011;4585;51.414;6.776;2022-07-11T12:19:31;2.17;;;1.50;;
9098;SDS011;4585;51.414;6.776;2022-07-11T12:22:02;2.23;;;1.30;;
9098;SDS011;4585;51.414;6.776;2022-07-11T12:24:29;1.20;;;1.10;;
9098;SDS011;4585;51.414;6.776;2022-07-11T12:26:56;2.77;;;1.97;;
9098;SDS011;4585;51.414;6.776;2022-07-11T12:29:23;1.80;;;1.70;;
9098;SDS011;4585;51.414;6.776;2022-07-11T12:34:19;4.33;;;1.47;;
9098;SDS011;4585;51.414;6.776;2022-07-11T12:37:07;1.90;;;1.80;;
9098;SDS011;4585;51.414;6.776;2022-07-11T12:39:35;6.43;;;2.07;;
9098;SDS011;4585;51.414;6.776;2022-07-11T12:44:54;2.50;;;1.87;;
9098;SDS011;4585;51.414;6.776;2022-07-11T12:47:23;2.47;;;1.83;;
9098;SDS011;4585;51.414;6.776;2022-07-11T12:49:51;3.87;;;1.83;;
9098;SDS011;4585;51.414;6.776;2022-07-11T12:52:17;2.27;;;1.80;;
9098;SDS011;4585;51.414;6.776;2022-07-11T12:54:43;3.20;;;2.30;;
9098;SDS011;4585;51.414;6.776;2022-07-11T12:57:09;2.93;;;2.20;;
9098;SDS011;4585;51.414;6.776;2022-07-11T12:59:40;3.50;;;2.50;;
9098;SDS011;4585;51.414;6.776;2022-07-11T13:02:07;4.20;;;2.70;;
9098;SDS011;4585;51.414;6.776;2022-07-11T13:10:24;4.73;;;2.73;;
9098;SDS011;4585;51.414;6.776;2022-07-11T13:12:52;2.50;;;2.30;;
9098;SDS011;4585;51.414;6.776;2022-07-11T13:15:20;2.97;;;2.30;;
9098;SDS011;4585;51.414;6.776;2022-07-11T13:17:47;3.23;;;2.50;;
9098;SDS011;4585;51.414;6.776;2022-07-11T13:20:21;4.00;;;3.00;;
9098;SDS011;4585;51.414;6.776;2022-07-11T13:22:49;4.33;;;2.57;;
9098;SDS011;4585;51.414;6.776;2022-07-11T13:25:16;3.20;;;2.33;;
9098;SDS011;4585;51.414;6.776;2022-07-11T13:27:44;5.97;;;2.50;;
9098;SDS011;4585;51.414;6.776;2022-07-11T13:30:11;5.37;;;2.40;;
9098;SDS011;4585;51.414;6.776;2022-07-11T13:32:45;4.33;;;2.20;;
9098;SDS011;4585;51.414;6.776;2022-07-11T13:35:12;1.70;;;1.60;;
9098;SDS011;4585;51.414;6.776;2022-07-11T13:37:38;1.70;;;1.30;;
9098;SDS011;4585;51.414;6.776;2022-07-11T13:40:06;1.73;;;1.30;;
9098;SDS011;4585;51.414;6.776;2022-07-11T13:42:36;1.10;;;1.00;;
9098;SDS011;4585;51.414;6.776;2022-07-11T13:45:04;1.83;;;1.13;;
9098;SDS011;4585;51.414;6.776;2022-07-11T13:47:31;1.30;;;1.20;;
9098;SDS011;4585;51.414;6.776;2022-07-11T13:49:57;2.33;;;1.50;;
9098;SDS011;4585;51.414;6.776;2022-07-11T13:52:24;1.30;;;1.17;;
9098;SDS011;4585;51.414;6.776;2022-07-11T13:54:49;1.50;;;1.40;;
9098;SDS011;4585;51.414;6.776;2022-07-11T13:57:15;1.73;;;1.63;;
9098;SDS011;4585;51.414;6.776;2022-07-11T13:59:41;3.73;;;1.80;;
9098;SDS011;4585;51.414;6.776;2022-07-11T14:02:07;2.53;;;2.10;;
9098;SDS011;4585;51.414;6.776;2022-07-11T14:04:33;3.93;;;3.00;;
9098;SDS011;4585;51.414;6.776;2022-07-11T14:06:59;4.97;;;3.00;;
9098;SDS011;4585;51.414;6.776;2022-07-11T14:09:24;3.53;;;3.23;;
9098;SDS011;4585;51.414;6.776;2022-07-11T14:11:51;6.05;;;2.75;;
9098;SDS011;4585;51.414;6.776;2022-07-11T14:14:17;2.93;;;2.00;;
9098;SDS011;4585;51.414;6.776;2022-07-11T14:16:43;1.70;;;1.60;;
9098;SDS011;4585;51.414;6.776;2022-07-11T14:19:09;2.17;;;1.50;;
9098;SDS011;4585;51.414;6.776;2022-07-11T14:21:39;2.07;;;1.87;;
9098;SDS011;4585;51.414;6.776;2022-07-11T14:24:05;2.90;;;2.70;;
9098;SDS011;4585;51.414;6.776;2022-07-11T14:26:34;4.47;;;3.37;;
9098;SDS011;4585;51.414;6.776;2022-07-11T14:29:02;3.60;;;2.90;;
9098;SDS011;4585;51.414;6.776;2022-07-11T14:31:28;3.90;;;2.87;;
9098;SDS011;4585;51.414;6.776;2022-07-11T14:33:54;3.77;;;2.90;;
9098;SDS011;4585;51.414;6.776;2022-07-11T14:36:20;3.03;;;2.73;;
9098;SDS011;4585;51.414;6.776;2022-07-11T14:38:46;3.25;;;2.80;;
9098;SDS011;4585;51.414;6.776;2022-07-11T14:41:12;4.67;;;2.80;;
9098;SDS011;4585;51.414;6.776;2022-07-11T14:43:40;2.65;;;1.80;;
9098;SDS011;4585;51.414;6.776;2022-07-11T14:46:06;2.00;;;1.60;;
9098;SDS011;4585;51.414;6.776;2022-07-11T14:48:33;3.60;;;1.90;;
9098;SDS011;4585;51.414;6.776;2022-07-11T14:50:59;5.93;;;2.30;;
9098;SDS011;4585;51.414;6.776;2022-07-11T14:53:25;3.37;;;2.77;;
9098;SDS011;4585;51.414;6.776;2022-07-11T14:55:52;2.55;;;2.35;;
9098;SDS011;4585;51.414;6.776;2022-07-11T14:58:18;4.25;;;2.22;;
9098;SDS011;4585;51.414;6.776;2022-07-11T15:00:43;2.95;;;2.30;;
9098;SDS011;4585;51.414;6.776;2022-07-11T15:03:10;3.30;;;2.50;;
9098;SDS011;4585;51.414;6.776;2022-07-11T15:05:55;2.50;;;2.10;;
9098;SDS011;4585;51.414;6.776;2022-07-11T15:08:20;2.55;;;2.10;;
9098;SDS011;4585;51.414;6.776;2022-07-11T15:11:05;2.30;;;2.10;;
9098;SDS011;4585;51.414;6.776;2022-07-11T15:13:49;2.97;;;2.50;;
9098;SDS011;4585;51.414;6.776;2022-07-11T15:16:14;3.97;;;2.67;;
9098;SDS011;4585;51.414;6.776;2022-07-11T15:18:40;2.60;;;2.40;;
9098;SDS011;4585;51.414;6.776;2022-07-11T15:21:06;2.67;;;2.37;;
9098;SDS011;4585;51.414;6.776;2022-07-11T15:23:32;3.30;;;2.00;;
9098;SDS011;4585;51.414;6.776;2022-07-11T15:25:58;3.80;;;2.20;;
9098;SDS011;4585;51.414;6.776;2022-07-11T15:28:24;2.50;;;1.97;;
9098;SDS011;4585;51.414;6.776;2022-07-11T15:30:50;4.57;;;2.83;;
9098;SDS011;4585;51.414;6.776;2022-07-11T15:33:16;5.60;;;2.47;;
9098;SDS011;4585;51.414;6.776;2022-07-11T15:35:41;3.42;;;2.30;;
9098;SDS011;4585;51.414;6.776;2022-07-11T15:38:08;7.13;;;5.70;;
9098;SDS011;4585;51.414;6.776;2022-07-11T15:40:37;19.92;;;7.85;;
9098;SDS011;4585;51.414;6.776;2022-07-11T15:43:02;7.45;;;4.30;;
9098;SDS011;4585;51.414;6.776;2022-07-11T15:45:28;6.95;;;4.43;;
9098;SDS011;4585;51.414;6.776;2022-07-11T15:47:55;6.97;;;4.10;;
9098;SDS011;4585;51.414;6.776;2022-07-11T15:50:22;4.63;;;3.80;;
9098;SDS011;4585;51.414;6.776;2022-07-11T15:52:47;7.70;;;4.18;;
9098;SDS011;4585;51.414;6.776;2022-07-11T15:55:13;4.60;;;3.83;;
9098;SDS011;4585;51.414;6.776;2022-07-11T15:57:39;5.07;;;3.90;;
9098;SDS011;4585;51.414;6.776;2022-07-11T16:00:05;6.45;;;3.42;;
9098;SDS011;4585;51.414;6.776;2022-07-11T16:02:32;6.75;;;3.72;;
9098;SDS011;4585;51.414;6.776;2022-07-11T16:04:58;5.47;;;3.47;;
9098;SDS011;4585;51.414;6.776;2022-07-11T16:07:24;5.37;;;3.80;;
9098;SDS011;4585;51.414;6.776;2022-07-11T16:09:50;8.33;;;4.40;;